createdAt,value
2023-04-11T00:00:36.401Z,34.67
2023-04-11T00:05:40.111Z,42.78
2023-04-11T00:10:45.906Z,38.25
2023-04-11T00:15:53.451Z,48.92
2023-04-11T00:20:57.142Z,49.83
2023-04-11T00:26:02.467Z,36.90
2023-04-11T00:31:07.008Z,35.40
2023-04-11T00:36:12.056Z,53.25
2023-04-11T00:41:17.265Z,38.00
2023-04-11T00:46:22.645Z,40.63
2023-04-11T00:51:26.940Z,41.00
2023-04-11T00:56:32.243Z,49.83
2023-04-11T01:01:36.393Z,51.50
2023-04-11T01:06:41.717Z,43.33
2023-04-11T01:11:46.929Z,45.45
2023-04-11T01:16:51.408Z,43.38
2023-04-11T01:21:57.460Z,44.15
2023-04-11T01:27:03.722Z,55.00
2023-04-11T01:32:07.995Z,40.15
2023-04-11T01:37:11.891Z,39.35
2023-04-11T01:42:17.469Z,33.88
2023-04-11T01:47:21.247Z,39.33
2023-04-11T01:52:26.597Z,50.85
2023-04-11T01:57:31.980Z,34.97
2023-04-11T02:02:35.744Z,33.55
2023-04-11T02:07:41.203Z,37.78
2023-04-11T02:12:46.526Z,39.50
2023-04-11T02:17:54.139Z,31.20
2023-04-11T02:22:58.707Z,39.95
2023-04-11T02:28:05.114Z,40.17
2023-04-11T02:33:10.629Z,29.00
2023-04-11T02:38:14.414Z,36.90
2023-04-11T02:43:19.477Z,44.17
2023-04-11T02:48:23.194Z,29.42
2023-04-11T02:53:27.273Z,28.58
2023-04-11T02:58:32.976Z,33.10
2023-04-11T03:03:39.183Z,29.37
2023-04-11T03:08:44.091Z,32.70
2023-04-11T03:13:50.068Z,25.75
2023-04-11T03:18:54.262Z,27.73
2023-04-11T03:23:58.567Z,25.23
2023-04-11T03:29:03.819Z,20.77
2023-04-11T03:34:08.829Z,19.58
2023-04-11T03:39:14.792Z,25.52
2023-04-11T03:44:20.172Z,19.95
2023-04-11T03:49:24.286Z,29.08
2023-04-11T03:54:28.497Z,21.45
2023-04-11T03:59:33.988Z,25.08
2023-04-11T04:04:38.963Z,17.17
2023-04-11T04:09:43.748Z,28.30
2023-04-11T04:14:49.344Z,19.60
2023-04-11T04:19:53.476Z,25.67
2023-04-11T04:24:58.940Z,21.85
2023-04-11T04:30:05.103Z,23.15
2023-04-11T04:35:10.251Z,24.98
2023-04-11T04:40:15.962Z,21.65
2023-04-11T04:45:23.499Z,26.50
2023-04-11T04:50:27.651Z,23.27
2023-04-11T04:55:31.693Z,14.95
2023-04-11T05:00:36.956Z,19.80
2023-04-11T05:05:44.697Z,26.45
2023-04-11T05:10:49.100Z,26.92
2023-04-11T05:15:56.093Z,25.75
2023-04-11T05:21:02.528Z,17.77
2023-04-11T05:26:08.029Z,18.80
2023-04-11T05:31:14.218Z,20.05
2023-04-11T05:36:18.482Z,20.20
2023-04-11T05:41:22.391Z,24.85
2023-04-11T05:46:29.309Z,30.08
2023-04-11T05:51:33.182Z,15.75
2023-04-11T05:56:39.676Z,16.02
2023-04-11T06:01:44.839Z,24.02
2023-04-11T06:06:48.702Z,19.80
2023-04-11T06:11:52.417Z,18.87
2023-04-11T06:16:57.535Z,19.27
2023-04-11T06:22:01.529Z,17.20
2023-04-11T06:27:05.861Z,18.58
2023-04-11T06:32:12.601Z,29.12
2023-04-11T06:37:16.440Z,21.00
2023-04-11T06:42:20.244Z,22.55
2023-04-11T06:47:29.182Z,23.33
2023-04-11T06:52:33.001Z,27.70
2023-04-11T06:57:36.716Z,20.05
2023-04-11T07:02:42.008Z,23.50
2023-04-11T07:07:45.859Z,20.88
2023-04-11T07:12:49.534Z,20.98
2023-04-11T07:17:54.809Z,14.75
2023-04-11T07:22:58.710Z,17.35
2023-04-11T07:28:02.402Z,14.75
2023-04-11T07:33:07.549Z,21.87
2023-04-11T07:38:12.536Z,19.60
2023-04-11T07:43:16.254Z,21.60
2023-04-11T07:48:22.301Z,20.30
2023-04-11T07:53:26.879Z,19.30
2023-04-11T07:58:30.842Z,16.60
2023-04-11T08:03:36.192Z,27.58
2023-04-11T08:08:40.052Z,12.30
2023-04-11T08:13:43.982Z,18.60
2023-04-11T08:18:49.128Z,11.75
2023-04-11T08:23:52.987Z,18.55
2023-04-11T08:28:56.768Z,21.83
2023-04-11T08:34:03.878Z,19.67
2023-04-11T08:44:13.137Z,18.62
2023-04-11T08:49:18.314Z,14.35
2023-04-11T08:54:22.026Z,15.98
2023-04-11T08:59:26.310Z,17.33
2023-04-11T09:04:40.353Z,12.35
2023-04-11T09:09:44.252Z,11.35
2023-04-11T09:14:48.154Z,13.93
2023-04-11T09:19:53.329Z,13.35
2023-04-11T09:25:03.724Z,9.52
2023-04-11T09:30:20.149Z,10.80
2023-04-11T09:35:28.510Z,11.55
2023-04-11T09:45:54.065Z,14.98
2023-04-11T09:51:01.847Z,15.60
2023-04-11T09:56:06.951Z,11.60
2023-04-11T10:01:11.455Z,10.95
2023-04-11T10:06:24.051Z,10.18
2023-04-11T10:11:28.313Z,8.95
2023-04-11T10:16:34.276Z,8.68
2023-04-11T10:21:42.917Z,6.85
2023-04-11T10:32:11.578Z,12.25
2023-04-11T10:37:17.100Z,7.68
2023-04-11T10:42:30.433Z,10.77
2023-04-11T10:47:34.295Z,7.35
2023-04-11T10:52:39.924Z,6.43
2023-04-11T10:58:05.673Z,8.15
2023-04-11T11:03:15.596Z,5.10
2023-04-11T11:08:30.616Z,7.90
2023-04-11T11:13:41.400Z,6.37
2023-04-11T11:18:49.449Z,10.13
2023-04-11T11:23:59.310Z,11.35
2023-04-11T11:29:03.531Z,7.43
2023-04-11T11:39:15.842Z,12.40
2023-04-11T11:44:23.904Z,6.78
2023-04-11T11:54:44.293Z,11.38
2023-04-11T11:59:54.174Z,9.52
2023-04-11T12:04:59.932Z,3.92
2023-04-11T12:10:10.810Z,6.60
2023-04-11T12:15:16.127Z,5.95
2023-04-11T12:20:23.924Z,5.82
2023-04-11T12:25:29.381Z,7.53
2023-04-11T12:30:33.341Z,7.22
2023-04-11T12:35:37.054Z,3.42
2023-04-11T12:40:42.139Z,9.52
2023-04-11T12:45:45.849Z,4.60
2023-04-11T12:50:49.579Z,6.57
2023-04-11T12:55:54.694Z,7.93
2023-04-11T13:00:59.469Z,6.25
2023-04-11T13:06:03.209Z,6.85
2023-04-11T13:11:08.668Z,6.70
2023-04-11T13:16:12.814Z,4.53
2023-04-11T13:21:16.753Z,4.45
2023-04-11T13:26:21.792Z,4.95
2023-04-11T13:31:26.757Z,7.53
2023-04-11T13:36:32.215Z,4.85
2023-04-11T13:41:37.357Z,3.87
2023-04-11T13:46:41.080Z,3.25
2023-04-11T13:51:44.870Z,3.85
2023-04-11T13:56:50.084Z,6.55
2023-04-11T14:01:53.888Z,4.40
2023-04-11T14:06:57.649Z,6.82
2023-04-11T14:12:03.033Z,4.82
2023-04-11T14:17:06.771Z,5.55
2023-04-11T14:22:10.737Z,6.78
2023-04-11T14:27:15.844Z,6.00
2023-04-11T14:32:19.640Z,6.65
2023-04-11T14:37:23.361Z,8.60
2023-04-11T14:42:28.580Z,10.93
2023-04-11T14:47:32.556Z,5.97
2023-04-11T14:52:36.302Z,6.20
2023-04-11T14:57:46.370Z,8.10
2023-04-11T15:02:53.004Z,4.50
2023-04-11T15:07:56.809Z,7.47
2023-04-11T15:13:02.063Z,6.00
2023-04-11T15:18:26.932Z,10.00
2023-04-11T15:23:31.043Z,7.35
2023-04-11T15:28:37.836Z,7.28
2023-04-11T15:33:41.819Z,8.75
2023-04-11T15:38:46.064Z,6.87
2023-04-11T15:43:51.151Z,12.23
2023-04-11T15:48:54.829Z,11.95
2023-04-11T15:53:58.788Z,8.20
2023-04-11T15:59:03.962Z,7.20
2023-04-11T16:04:07.762Z,6.30
2023-04-11T16:09:12.300Z,10.80
2023-04-11T16:14:17.411Z,7.72
2023-04-11T16:19:21.111Z,6.72
2023-04-11T16:24:25.929Z,8.55
2023-04-11T16:29:31.145Z,6.55
2023-04-11T16:34:34.881Z,7.50
2023-04-11T16:39:38.639Z,15.10
2023-04-11T16:44:43.758Z,6.50
2023-04-11T16:49:47.546Z,8.73
2023-04-11T16:54:51.762Z,5.75
2023-04-11T16:59:57.070Z,7.30
2023-04-11T17:05:00.816Z,11.25
2023-04-11T17:10:05.242Z,5.93
2023-04-11T17:15:11.241Z,5.75
2023-04-11T17:20:14.998Z,9.38
2023-04-11T17:25:18.786Z,9.38
2023-04-11T17:30:24.087Z,7.32
2023-04-11T17:35:28.911Z,10.15
2023-04-11T17:40:32.905Z,11.25
2023-04-11T17:45:38.154Z,6.22
2023-04-11T17:50:46.048Z,8.50
2023-04-11T17:55:50.068Z,6.22
2023-04-11T18:00:57.027Z,12.13
2023-04-11T18:06:01.031Z,5.18
2023-04-11T18:11:05.133Z,5.12
2023-04-11T18:16:11.004Z,8.23
2023-04-11T18:21:15.881Z,8.10
2023-04-11T18:26:19.603Z,7.85
2023-04-11T18:31:24.698Z,10.68
2023-04-11T18:36:28.556Z,8.52
2023-04-11T18:41:32.487Z,13.32
2023-04-11T18:46:37.815Z,8.63
2023-04-11T18:51:41.553Z,8.63
2023-04-11T18:56:47.976Z,9.73
2023-04-11T19:01:54.562Z,6.93
2023-04-11T19:06:59.011Z,7.70
2023-04-11T19:12:02.763Z,9.35
2023-04-11T19:17:07.912Z,7.28
2023-04-11T19:22:11.869Z,8.40
2023-04-11T19:27:18.356Z,11.57
2023-04-11T19:32:23.495Z,8.27
2023-04-11T19:37:27.211Z,9.57
2023-04-11T19:42:32.992Z,8.05
2023-04-11T19:47:39.477Z,8.23
2023-04-11T19:52:44.004Z,11.82
2023-04-11T19:57:47.722Z,5.22
2023-04-11T20:02:52.979Z,9.82
2023-04-11T20:07:56.749Z,9.07
2023-04-11T20:13:00.560Z,12.40
2023-04-11T20:18:05.917Z,10.35
2023-04-11T20:23:10.464Z,13.70
2023-04-11T20:28:14.186Z,10.25
2023-04-11T20:33:19.274Z,9.48
2023-04-11T20:38:23.474Z,8.20
2023-04-11T20:43:27.247Z,9.02
2023-04-11T20:48:32.487Z,9.77
2023-04-11T20:53:36.257Z,10.35
2023-04-11T20:58:40.738Z,7.97
2023-04-11T21:03:47.015Z,13.07
2023-04-11T21:08:51.382Z,12.90
2023-04-11T21:13:55.788Z,8.70
2023-04-11T21:19:01.249Z,8.88
2023-04-11T21:24:07.762Z,8.02
2023-04-11T21:29:12.050Z,9.82
2023-04-11T21:34:17.202Z,9.85
2023-04-11T21:39:21.201Z,14.25
2023-04-11T21:44:25.034Z,12.48
2023-04-11T21:49:30.163Z,11.50
2023-04-11T21:54:34.852Z,13.75
2023-04-11T21:59:39.181Z,9.07
2023-04-11T22:05:01.004Z,6.97
2023-04-11T22:10:12.761Z,10.60
2023-04-11T22:15:18.176Z,10.93
2023-04-11T22:20:23.324Z,14.75
2023-04-11T22:25:27.081Z,12.80
2023-04-11T22:30:30.852Z,6.12
2023-04-11T22:35:35.901Z,10.65
2023-04-11T22:40:40.209Z,12.55
2023-04-11T22:45:46.727Z,10.15
2023-04-11T22:50:55.327Z,8.95
2023-04-11T22:55:59.035Z,10.80
2023-04-11T23:01:02.781Z,10.95
2023-04-11T23:06:08.874Z,7.20
2023-04-11T23:11:12.698Z,12.98
2023-04-11T23:16:16.390Z,9.18
2023-04-11T23:21:21.448Z,11.93
2023-04-11T23:26:25.277Z,6.55
2023-04-11T23:31:28.974Z,7.35
2023-04-11T23:36:34.535Z,6.93
2023-04-11T23:41:38.252Z,3.40
2023-04-11T23:46:42.172Z,3.03
2023-04-11T23:51:47.342Z,5.95
2023-04-11T23:56:51.014Z,4.62
